sensor_id;sensor_type;location;lat;lon;timestamp;noise_LAeq;noise_LA_min;noise_LA_max;noise_LA01;noise_LA95
77134;Laerm;25175;50.140;18.990;2024-01-16T00:00:51;43.15;34.79;71.79;;
77134;Laerm;25175;50.140;18.990;2024-01-16T00:03:58;39.33;34.36;58.59;;
77134;Laerm;25175;50.140;18.990;2024-01-16T00:07:03;38.14;34.49;54.40;;
77134;Laerm;25175;50.140;18.990;2024-01-16T00:10:10;37.86;34.01;56.45;;
77134;Laerm;25175;50.140;18.990;2024-01-16T00:13:15;38.58;34.42;54.18;;
77134;Laerm;25175;50.140;18.990;2024-01-16T00:16:24;38.05;34.26;53.81;;
77134;Laerm;25175;50.140;18.990;2024-01-16T00:19:29;40.82;33.94;67.10;;
77134;Laerm;25175;50.140;18.990;2024-01-16T00:22:35;38.44;33.80;59.08;;
77134;Laerm;25175;50.140;18.990;2024-01-16T00:25:39;37.15;34.05;51.67;;
77134;Laerm;25175;50.140;18.990;2024-01-16T00:28:45;38.16;33.70;59.66;;
77134;Laerm;25175;50.140;18.990;2024-01-16T00:31:52;36.82;34.20;48.69;;
77134;Laerm;25175;50.140;18.990;2024-01-16T00:34:58;37.93;34.08;56.67;;
77134;Laerm;25175;50.140;18.990;2024-01-16T00:38:04;36.48;33.87;41.99;;
77134;Laerm;25175;50.140;18.990;2024-01-16T00:41:09;37.52;33.66;58.24;;
77134;Laerm;25175;50.140;18.990;2024-01-16T00:44:16;39.32;33.46;61.86;;
77134;Laerm;25175;50.140;18.990;2024-01-16T00:47:24;36.46;33.51;49.64;;
77134;Laerm;25175;50.140;18.990;2024-01-16T00:50:29;37.29;33.80;52.25;;
77134;Laerm;25175;50.140;18.990;2024-01-16T00:53:40;36.79;33.45;53.64;;
77134;Laerm;25175;50.140;18.990;2024-01-16T00:56:45;36.59;33.57;49.70;;
77134;Laerm;25175;50.140;18.990;2024-01-16T00:59:51;36.57;33.93;43.01;;
77134;Laerm;25175;50.140;18.990;2024-01-16T01:02:58;36.71;33.96;42.56;;
77134;Laerm;25175;50.140;18.990;2024-01-16T01:06:05;36.42;33.78;44.54;;
77134;Laerm;25175;50.140;18.990;2024-01-16T01:09:11;36.01;33.29;50.93;;
77134;Laerm;25175;50.140;18.990;2024-01-16T01:12:18;36.12;33.61;46.15;;
77134;Laerm;25175;50.140;18.990;2024-01-16T01:15:24;36.20;33.40;56.24;;
77134;Laerm;25175;50.140;18.990;2024-01-16T01:18:33;36.39;33.35;47.03;;
77134;Laerm;25175;50.140;18.990;2024-01-16T01:21:37;36.20;33.52;50.29;;
77134;Laerm;25175;50.140;18.990;2024-01-16T01:24:43;36.43;33.47;49.46;;
77134;Laerm;25175;50.140;18.990;2024-01-16T01:27:47;36.33;33.56;42.06;;
77134;Laerm;25175;50.140;18.990;2024-01-16T01:30:53;37.26;33.70;52.29;;
77134;Laerm;25175;50.140;18.990;2024-01-16T01:34:00;37.36;34.49;42.76;;
77134;Laerm;25175;50.140;18.990;2024-01-16T01:37:07;37.36;34.60;46.00;;
77134;Laerm;25175;50.140;18.990;2024-01-16T01:40:13;36.66;34.33;50.48;;
77134;Laerm;25175;50.140;18.990;2024-01-16T01:43:21;36.77;34.18;39.57;;
77134;Laerm;25175;50.140;18.990;2024-01-16T01:46:26;37.18;33.93;43.51;;
77134;Laerm;25175;50.140;18.990;2024-01-16T01:49:36;37.32;34.77;41.53;;
77134;Laerm;25175;50.140;18.990;2024-01-16T01:52:44;37.93;34.45;45.36;;
77134;Laerm;25175;50.140;18.990;2024-01-16T01:55:50;38.08;34.57;48.47;;
77134;Laerm;25175;50.140;18.990;2024-01-16T01:58:58;38.61;34.76;50.94;;
77134;Laerm;25175;50.140;18.990;2024-01-16T02:02:06;41.12;36.07;50.16;;
77134;Laerm;25175;50.140;18.990;2024-01-16T02:05:14;37.19;33.82;45.05;;
77134;Laerm;25175;50.140;18.990;2024-01-16T02:08:21;36.49;33.86;40.24;;
77134;Laerm;25175;50.140;18.990;2024-01-16T02:11:26;36.79;34.10;49.47;;
77134;Laerm;25175;50.140;18.990;2024-01-16T02:14:32;36.38;33.59;40.98;;
77134;Laerm;25175;50.140;18.990;2024-01-16T02:17:38;36.00;33.50;43.40;;
77134;Laerm;25175;50.140;18.990;2024-01-16T02:20:50;37.35;33.64;53.91;;
77134;Laerm;25175;50.140;18.990;2024-01-16T02:23:57;38.25;34.03;57.06;;
77134;Laerm;25175;50.140;18.990;2024-01-16T02:27:06;37.10;34.15;41.60;;
77134;Laerm;25175;50.140;18.990;2024-01-16T02:30:12;36.94;34.35;44.64;;
77134;Laerm;25175;50.140;18.990;2024-01-16T02:33:17;37.21;34.53;51.53;;
77134;Laerm;25175;50.140;18.990;2024-01-16T02:36:23;36.95;33.98;40.80;;
77134;Laerm;25175;50.140;18.990;2024-01-16T02:39:31;37.85;34.60;54.49;;
77134;Laerm;25175;50.140;18.990;2024-01-16T02:42:36;46.45;34.59;76.92;;
77134;Laerm;25175;50.140;18.990;2024-01-16T02:45:43;37.60;34.52;44.35;;
77134;Laerm;25175;50.140;18.990;2024-01-16T02:48:48;37.59;34.43;52.93;;
77134;Laerm;25175;50.140;18.990;2024-01-16T02:51:54;37.64;34.59;50.56;;
77134;Laerm;25175;50.140;18.990;2024-01-16T02:55:02;46.29;34.57;64.95;;
77134;Laerm;25175;50.140;18.990;2024-01-16T02:58:09;47.67;34.08;70.46;;
77134;Laerm;25175;50.140;18.990;2024-01-16T03:01:14;38.85;34.46;60.70;;
77134;Laerm;25175;50.140;18.990;2024-01-16T03:04:20;38.46;34.45;62.18;;
77134;Laerm;25175;50.140;18.990;2024-01-16T03:07:26;37.43;34.34;50.05;;
77134;Laerm;25175;50.140;18.990;2024-01-16T03:10:35;37.83;34.75;45.06;;
77134;Laerm;25175;50.140;18.990;2024-01-16T03:13:41;38.33;34.64;55.69;;
77134;Laerm;25175;50.140;18.990;2024-01-16T03:16:48;37.86;34.42;55.73;;
77134;Laerm;25175;50.140;18.990;2024-01-16T03:19:53;37.40;34.24;45.18;;
77134;Laerm;25175;50.140;18.990;2024-01-16T03:23:00;38.07;34.51;55.64;;
77134;Laerm;25175;50.140;18.990;2024-01-16T03:26:12;37.47;34.34;55.97;;
77134;Laerm;25175;50.140;18.990;2024-01-16T03:29:18;41.59;34.38;64.60;;
77134;Laerm;25175;50.140;18.990;2024-01-16T03:32:23;37.54;34.30;52.55;;
77134;Laerm;25175;50.140;18.990;2024-01-16T03:35:28;37.17;34.29;59.77;;
77134;Laerm;25175;50.140;18.990;2024-01-16T03:38:33;36.99;34.66;40.49;;
77134;Laerm;25175;50.140;18.990;2024-01-16T03:41:42;36.76;34.22;42.85;;
77134;Laerm;25175;50.140;18.990;2024-01-16T03:44:47;37.23;34.30;46.76;;
77134;Laerm;25175;50.140;18.990;2024-01-16T03:47:53;37.98;34.42;51.12;;
77134;Laerm;25175;50.140;18.990;2024-01-16T03:50:58;38.12;35.00;53.32;;
77134;Laerm;25175;50.140;18.990;2024-01-16T03:54:04;38.13;34.51;58.52;;
77134;Laerm;25175;50.140;18.990;2024-01-16T03:57:12;37.86;34.77;49.68;;
77134;Laerm;25175;50.140;18.990;2024-01-16T04:00:17;38.23;34.98;50.48;;
77134;Laerm;25175;50.140;18.990;2024-01-16T04:03:22;37.88;34.61;42.93;;
77134;Laerm;25175;50.140;18.990;2024-01-16T04:06:29;37.66;34.72;45.63;;
77134;Laerm;25175;50.140;18.990;2024-01-16T04:09:34;38.83;35.29;53.02;;
77134;Laerm;25175;50.140;18.990;2024-01-16T04:12:42;38.03;35.25;45.69;;
77134;Laerm;25175;50.140;18.990;2024-01-16T04:15:47;39.92;35.18;58.00;;
77134;Laerm;25175;50.140;18.990;2024-01-16T04:18:53;40.59;34.56;66.47;;
77134;Laerm;25175;50.140;18.990;2024-01-16T04:21:58;38.73;34.61;50.69;;
77134;Laerm;25175;50.140;18.990;2024-01-16T04:25:05;41.20;35.12;62.56;;
77134;Laerm;25175;50.140;18.990;2024-01-16T04:28:13;43.39;35.27;66.31;;
77134;Laerm;25175;50.140;18.990;2024-01-16T04:31:19;40.26;34.82;50.50;;
77134;Laerm;25175;50.140;18.990;2024-01-16T04:34:24;38.70;34.72;54.99;;
77134;Laerm;25175;50.140;18.990;2024-01-16T04:37:29;40.09;34.31;54.39;;
77134;Laerm;25175;50.140;18.990;2024-01-16T04:40:34;38.20;35.03;47.08;;
77134;Laerm;25175;50.140;18.990;2024-01-16T04:43:45;43.79;34.65;59.33;;
77134;Laerm;25175;50.140;18.990;2024-01-16T04:46:53;40.09;34.91;49.41;;
77134;Laerm;25175;50.140;18.990;2024-01-16T04:50:00;39.54;34.19;52.05;;
77134;Laerm;25175;50.140;18.990;2024-01-16T04:53:05;41.86;34.24;59.87;;
77134;Laerm;25175;50.140;18.990;2024-01-16T04:56:10;39.33;33.97;50.17;;
77134;Laerm;25175;50.140;18.990;2024-01-16T04:59:17;37.70;34.55;46.14;;
77134;Laerm;25175;50.140;18.990;2024-01-16T05:02:23;38.02;34.42;49.26;;
77134;Laerm;25175;50.140;18.990;2024-01-16T05:05:27;37.95;34.14;51.05;;
77134;Laerm;25175;50.140;18.990;2024-01-16T05:08:32;39.02;34.06;51.76;;
77134;Laerm;25175;50.140;18.990;2024-01-16T05:11:38;38.59;34.09;49.01;;
77134;Laerm;25175;50.140;18.990;2024-01-16T05:14:46;41.93;34.00;58.93;;
77134;Laerm;25175;50.140;18.990;2024-01-16T05:17:52;41.60;34.33;60.34;;
77134;Laerm;25175;50.140;18.990;2024-01-16T05:20:59;40.09;34.51;50.40;;
77134;Laerm;25175;50.140;18.990;2024-01-16T05:24:04;38.48;34.01;49.37;;
77134;Laerm;25175;50.140;18.990;2024-01-16T05:27:11;38.04;34.42;49.96;;
77134;Laerm;25175;50.140;18.990;2024-01-16T05:30:18;46.98;34.18;64.31;;
77134;Laerm;25175;50.140;18.990;2024-01-16T05:33:24;39.44;34.50;52.24;;
77134;Laerm;25175;50.140;18.990;2024-01-16T05:36:29;39.90;34.92;51.49;;
77134;Laerm;25175;50.140;18.990;2024-01-16T05:39:35;43.55;34.94;56.91;;
77134;Laerm;25175;50.140;18.990;2024-01-16T05:42:42;38.27;34.60;50.43;;
77134;Laerm;25175;50.140;18.990;2024-01-16T05:45:52;39.13;34.44;48.85;;
77134;Laerm;25175;50.140;18.990;2024-01-16T05:48:56;38.95;35.13;50.49;;
77134;Laerm;25175;50.140;18.990;2024-01-16T05:52:02;38.99;35.16;50.61;;
77134;Laerm;25175;50.140;18.990;2024-01-16T05:55:08;40.46;35.52;51.12;;
77134;Laerm;25175;50.140;18.990;2024-01-16T05:58:13;45.30;35.26;66.42;;
77134;Laerm;25175;50.140;18.990;2024-01-16T06:01:21;45.40;35.13;64.84;;
77134;Laerm;25175;50.140;18.990;2024-01-16T06:04:26;41.85;35.03;54.42;;
77134;Laerm;25175;50.140;18.990;2024-01-16T06:07:33;40.11;34.96;49.70;;
77134;Laerm;25175;50.140;18.990;2024-01-16T06:10:38;41.47;35.14;54.78;;
77134;Laerm;25175;50.140;18.990;2024-01-16T06:13:44;42.21;34.99;56.81;;
77134;Laerm;25175;50.140;18.990;2024-01-16T06:16:54;41.25;35.45;51.54;;
77134;Laerm;25175;50.140;18.990;2024-01-16T06:19:59;39.72;35.17;48.51;;
77134;Laerm;25175;50.140;18.990;2024-01-16T06:23:05;42.28;34.78;60.73;;
77134;Laerm;25175;50.140;18.990;2024-01-16T06:26:10;43.34;35.48;57.96;;
77134;Laerm;25175;50.140;18.990;2024-01-16T06:29:18;42.26;35.31;57.93;;
77134;Laerm;25175;50.140;18.990;2024-01-16T06:32:25;43.17;36.12;56.02;;
77134;Laerm;25175;50.140;18.990;2024-01-16T06:35:31;45.17;36.00;60.83;;
77134;Laerm;25175;50.140;18.990;2024-01-16T06:38:38;43.18;36.39;57.23;;
77134;Laerm;25175;50.140;18.990;2024-01-16T06:41:46;45.32;36.11;62.37;;
77134;Laerm;25175;50.140;18.990;2024-01-16T06:44:51;41.67;36.73;50.02;;
77134;Laerm;25175;50.140;18.990;2024-01-16T06:48:03;42.20;36.63;52.87;;
77134;Laerm;25175;50.140;18.990;2024-01-16T06:51:08;43.24;36.86;57.45;;
77134;Laerm;25175;50.140;18.990;2024-01-16T06:54:17;42.69;37.27;56.06;;
77134;Laerm;25175;50.140;18.990;2024-01-16T06:57:23;41.72;36.37;60.22;;
77134;Laerm;25175;50.140;18.990;2024-01-16T07:00:30;41.18;35.63;58.69;;
77134;Laerm;25175;50.140;18.990;2024-01-16T07:03:37;41.51;35.38;55.65;;
77134;Laerm;25175;50.140;18.990;2024-01-16T07:06:43;40.62;35.51;50.21;;
77134;Laerm;25175;50.140;18.990;2024-01-16T07:09:49;40.86;35.79;59.44;;
77134;Laerm;25175;50.140;18.990;2024-01-16T07:12:56;44.42;36.27;61.93;;
77134;Laerm;25175;50.140;18.990;2024-01-16T07:16:01;42.70;36.27;62.50;;
77134;Laerm;25175;50.140;18.990;2024-01-16T07:19:10;42.04;36.72;53.09;;
77134;Laerm;25175;50.140;18.990;2024-01-16T07:22:15;52.87;36.84;76.99;;
77134;Laerm;25175;50.140;18.990;2024-01-16T07:25:22;53.54;37.40;76.01;;
77134;Laerm;25175;50.140;18.990;2024-01-16T07:28:26;45.33;36.50;60.50;;
77134;Laerm;25175;50.140;18.990;2024-01-16T07:31:33;42.60;36.82;59.77;;
77134;Laerm;25175;50.140;18.990;2024-01-16T07:34:41;50.38;36.36;72.97;;
77134;Laerm;25175;50.140;18.990;2024-01-16T07:37:47;39.98;35.96;48.35;;
77134;Laerm;25175;50.140;18.990;2024-01-16T07:40:51;42.84;36.68;53.70;;
77134;Laerm;25175;50.140;18.990;2024-01-16T07:43:58;39.96;36.06;49.34;;
77134;Laerm;25175;50.140;18.990;2024-01-16T07:47:05;41.99;36.82;53.49;;
77134;Laerm;25175;50.140;18.990;2024-01-16T07:50:15;42.18;36.64;59.20;;
77134;Laerm;25175;50.140;18.990;2024-01-16T07:53:21;41.39;36.24;55.77;;
77134;Laerm;25175;50.140;18.990;2024-01-16T07:56:29;53.25;36.14;67.57;;
77134;Laerm;25175;50.140;18.990;2024-01-16T07:59:34;41.59;35.95;60.23;;
77134;Laerm;25175;50.140;18.990;2024-01-16T08:02:40;40.24;36.68;47.24;;
77134;Laerm;25175;50.140;18.990;2024-01-16T08:05:48;46.52;36.66;71.08;;
77134;Laerm;25175;50.140;18.990;2024-01-16T08:08:55;41.17;36.42;55.40;;
77134;Laerm;25175;50.140;18.990;2024-01-16T08:12:00;56.75;37.22;75.40;;
77134;Laerm;25175;50.140;18.990;2024-01-16T08:15:08;43.78;37.35;56.80;;
77134;Laerm;25175;50.140;18.990;2024-01-16T08:18:13;46.77;37.03;67.32;;
77134;Laerm;25175;50.140;18.990;2024-01-16T08:21:22;41.18;36.17;56.80;;
77134;Laerm;25175;50.140;18.990;2024-01-16T08:24:27;40.96;36.06;52.90;;
77134;Laerm;25175;50.140;18.990;2024-01-16T08:27:35;44.53;36.84;57.31;;
77134;Laerm;25175;50.140;18.990;2024-01-16T08:30:41;43.41;37.48;55.46;;
77134;Laerm;25175;50.140;18.990;2024-01-16T08:33:47;43.48;36.77;58.93;;
77134;Laerm;25175;50.140;18.990;2024-01-16T08:36:55;42.57;37.12;57.24;;
77134;Laerm;25175;50.140;18.990;2024-01-16T08:40:01;46.41;36.57;66.93;;
77134;Laerm;25175;50.140;18.990;2024-01-16T08:43:06;45.12;36.88;66.83;;
77134;Laerm;25175;50.140;18.990;2024-01-16T08:46:11;47.83;36.55;71.21;;
77134;Laerm;25175;50.140;18.990;2024-01-16T08:49:16;41.62;36.70;59.48;;
77134;Laerm;25175;50.140;18.990;2024-01-16T08:52:25;45.90;36.65;61.16;;
77134;Laerm;25175;50.140;18.990;2024-01-16T08:55:30;41.78;36.26;59.74;;
77134;Laerm;25175;50.140;18.990;2024-01-16T08:58:37;46.84;37.12;62.74;;
77134;Laerm;25175;50.140;18.990;2024-01-16T09:01:42;44.12;36.31;60.11;;
77134;Laerm;25175;50.140;18.990;2024-01-16T09:04:48;42.50;36.68;55.37;;
77134;Laerm;25175;50.140;18.990;2024-01-16T09:07:56;42.13;36.76;55.01;;
77134;Laerm;25175;50.140;18.990;2024-01-16T09:11:02;45.10;36.08;67.44;;
77134;Laerm;25175;50.140;18.990;2024-01-16T09:14:07;43.80;36.34;62.91;;
77134;Laerm;25175;50.140;18.990;2024-01-16T09:17:13;41.45;36.10;55.28;;
77134;Laerm;25175;50.140;18.990;2024-01-16T09:20:17;40.72;36.01;57.94;;
77134;Laerm;25175;50.140;18.990;2024-01-16T09:23:25;42.36;35.67;57.94;;
77134;Laerm;25175;50.140;18.990;2024-01-16T09:26:30;48.19;35.97;63.56;;
77134;Laerm;25175;50.140;18.990;2024-01-16T09:29:36;42.13;35.74;57.75;;
77134;Laerm;25175;50.140;18.990;2024-01-16T09:32:41;44.51;35.56;62.83;;
77134;Laerm;25175;50.140;18.990;2024-01-16T09:35:47;42.87;35.66;58.63;;
77134;Laerm;25175;50.140;18.990;2024-01-16T09:38:55;41.52;35.86;55.80;;
77134;Laerm;25175;50.140;18.990;2024-01-16T09:42:01;48.33;36.29;66.43;;
77134;Laerm;25175;50.140;18.990;2024-01-16T09:45:09;41.59;36.65;60.39;;
77134;Laerm;25175;50.140;18.990;2024-01-16T09:48:16;44.22;36.74;61.71;;
77134;Laerm;25175;50.140;18.990;2024-01-16T09:51:21;43.22;36.62;56.19;;
77134;Laerm;25175;50.140;18.990;2024-01-16T09:54:29;43.17;37.00;56.98;;
77134;Laerm;25175;50.140;18.990;2024-01-16T09:57:40;43.26;36.49;57.60;;
77134;Laerm;25175;50.140;18.990;2024-01-16T10:00:47;43.17;36.31;59.25;;
77134;Laerm;25175;50.140;18.990;2024-01-16T10:03:52;47.80;36.63;64.88;;
77134;Laerm;25175;50.140;18.990;2024-01-16T10:07:01;44.50;36.62;59.11;;
77134;Laerm;25175;50.140;18.990;2024-01-16T10:10:09;43.36;36.73;55.79;;
77134;Laerm;25175;50.140;18.990;2024-01-16T10:13:15;42.81;35.83;55.39;;
77134;Laerm;25175;50.140;18.990;2024-01-16T10:16:21;45.23;36.09;59.61;;
77134;Laerm;25175;50.140;18.990;2024-01-16T10:19:31;42.02;35.53;58.80;;
77134;Laerm;25175;50.140;18.990;2024-01-16T10:22:36;46.28;36.37;59.82;;
77134;Laerm;25175;50.140;18.990;2024-01-16T10:25:46;43.77;35.77;59.96;;
77134;Laerm;25175;50.140;18.990;2024-01-16T10:29:04;44.02;36.19;57.32;;
77134;Laerm;25175;50.140;18.990;2024-01-16T10:32:10;45.39;35.94;61.56;;
77134;Laerm;25175;50.140;18.990;2024-01-16T10:35:15;42.00;35.85;58.60;;
77134;Laerm;25175;50.140;18.990;2024-01-16T10:38:21;44.89;35.52;59.33;;
77134;Laerm;25175;50.140;18.990;2024-01-16T10:41:30;47.73;36.13;62.40;;
77134;Laerm;25175;50.140;18.990;2024-01-16T10:44:35;45.56;35.76;58.75;;
77134;Laerm;25175;50.140;18.990;2024-01-16T10:47:47;49.61;37.23;64.57;;
77134;Laerm;25175;50.140;18.990;2024-01-16T10:51:13;45.48;36.38;61.74;;
77134;Laerm;25175;50.140;18.990;2024-01-16T10:54:22;45.88;36.47;60.35;;
77134;Laerm;25175;50.140;18.990;2024-01-16T10:57:41;46.12;35.95;58.36;;
77134;Laerm;25175;50.140;18.990;2024-01-16T11:00:57;43.29;35.19;58.89;;
77134;Laerm;25175;50.140;18.990;2024-01-16T11:04:11;45.25;35.45;59.15;;
77134;Laerm;25175;50.140;18.990;2024-01-16T11:07:17;42.94;35.30;54.03;;
77134;Laerm;25175;50.140;18.990;2024-01-16T11:10:31;44.94;34.96;57.73;;
77134;Laerm;25175;50.140;18.990;2024-01-16T11:13:51;43.14;35.40;55.19;;
77134;Laerm;25175;50.140;18.990;2024-01-16T11:17:07;44.30;35.17;60.00;;
77134;Laerm;25175;50.140;18.990;2024-01-16T11:20:39;43.68;35.20;57.76;;
77134;Laerm;25175;50.140;18.990;2024-01-16T11:23:53;44.38;35.32;65.67;;
77134;Laerm;25175;50.140;18.990;2024-01-16T11:27:23;48.39;35.18;67.74;;
77134;Laerm;25175;50.140;18.990;2024-01-16T11:30:33;45.70;36.81;60.87;;
77134;Laerm;25175;50.140;18.990;2024-01-16T11:33:44;42.25;35.83;58.53;;
77134;Laerm;25175;50.140;18.990;2024-01-16T11:36:54;42.59;35.69;55.27;;
77134;Laerm;25175;50.140;18.990;2024-01-16T11:40:22;42.45;36.29;52.83;;
77134;Laerm;25175;50.140;18.990;2024-01-16T11:43:37;41.66;35.05;58.30;;
77134;Laerm;25175;50.140;18.990;2024-01-16T11:47:04;43.57;35.43;57.14;;
77134;Laerm;25175;50.140;18.990;2024-01-16T11:50:28;41.71;35.23;54.08;;
77134;Laerm;25175;50.140;18.990;2024-01-16T11:53:36;41.17;34.55;52.35;;
77134;Laerm;25175;50.140;18.990;2024-01-16T12:00:32;40.11;35.65;50.45;;
77134;Laerm;25175;50.140;18.990;2024-01-16T12:03:43;42.12;35.39;55.28;;
77134;Laerm;25175;50.140;18.990;2024-01-16T12:06:58;41.19;35.19;53.07;;
77134;Laerm;25175;50.140;18.990;2024-01-16T12:10:06;41.50;35.46;57.19;;
77134;Laerm;25175;50.140;18.990;2024-01-16T12:13:20;41.85;35.35;55.07;;
77134;Laerm;25175;50.140;18.990;2024-01-16T12:16:32;43.09;36.07;56.23;;
77134;Laerm;25175;50.140;18.990;2024-01-16T12:19:43;42.70;35.96;55.57;;
77134;Laerm;25175;50.140;18.990;2024-01-16T12:22:57;43.10;36.33;58.17;;
77134;Laerm;25175;50.140;18.990;2024-01-16T12:26:07;44.62;35.61;61.64;;
77134;Laerm;25175;50.140;18.990;2024-01-16T12:29:19;42.07;34.90;61.66;;
77134;Laerm;25175;50.140;18.990;2024-01-16T12:32:30;43.75;35.53;70.73;;
77134;Laerm;25175;50.140;18.990;2024-01-16T12:35:44;44.44;36.22;60.12;;
77134;Laerm;25175;50.140;18.990;2024-01-16T12:38:55;42.23;36.06;53.54;;
77134;Laerm;25175;50.140;18.990;2024-01-16T12:42:05;43.18;35.61;62.09;;
77134;Laerm;25175;50.140;18.990;2024-01-16T12:45:13;41.70;35.71;53.24;;
77134;Laerm;25175;50.140;18.990;2024-01-16T12:48:26;41.55;35.22;60.28;;
77134;Laerm;25175;50.140;18.990;2024-01-16T12:51:50;41.58;34.90;54.17;;
77134;Laerm;25175;50.140;18.990;2024-01-16T12:55:05;41.23;34.82;51.78;;
77134;Laerm;25175;50.140;18.990;2024-01-16T12:58:15;42.38;35.19;56.58;;
77134;Laerm;25175;50.140;18.990;2024-01-16T13:01:25;40.91;35.09;51.52;;
77134;Laerm;25175;50.140;18.990;2024-01-16T13:04:31;41.81;34.35;54.31;;
77134;Laerm;25175;50.140;18.990;2024-01-16T13:07:39;44.27;35.29;60.88;;
77134;Laerm;25175;50.140;18.990;2024-01-16T13:10:43;43.79;35.20;59.10;;
77134;Laerm;25175;50.140;18.990;2024-01-16T13:14:01;44.88;34.47;61.35;;
77134;Laerm;25175;50.140;18.990;2024-01-16T13:17:11;42.19;34.40;53.31;;
77134;Laerm;25175;50.140;18.990;2024-01-16T13:20:17;42.28;35.48;55.58;;
77134;Laerm;25175;50.140;18.990;2024-01-16T13:23:26;39.87;34.95;56.02;;
77134;Laerm;25175;50.140;18.990;2024-01-16T13:26:36;43.09;35.14;62.78;;
77134;Laerm;25175;50.140;18.990;2024-01-16T13:29:41;42.16;35.27;52.19;;
77134;Laerm;25175;50.140;18.990;2024-01-16T13:32:47;42.29;35.89;58.38;;
77134;Laerm;25175;50.140;18.990;2024-01-16T13:35:52;40.55;35.48;51.20;;
77134;Laerm;25175;50.140;18.990;2024-01-16T13:39:02;41.07;35.45;62.33;;
77134;Laerm;25175;50.140;18.990;2024-01-16T13:42:14;43.12;35.89;54.32;;
77134;Laerm;25175;50.140;18.990;2024-01-16T13:45:23;42.85;35.67;56.93;;
77134;Laerm;25175;50.140;18.990;2024-01-16T13:48:27;46.25;35.37;59.94;;
77134;Laerm;25175;50.140;18.990;2024-01-16T13:51:32;40.80;35.34;53.01;;
77134;Laerm;25175;50.140;18.990;2024-01-16T13:54:40;42.06;35.06;55.68;;
77134;Laerm;25175;50.140;18.990;2024-01-16T13:57:46;41.14;35.45;57.34;;
77134;Laerm;25175;50.140;18.990;2024-01-16T14:00:51;42.92;35.76;54.37;;
77134;Laerm;25175;50.140;18.990;2024-01-16T14:03:57;43.84;35.89;63.59;;
77134;Laerm;25175;50.140;18.990;2024-01-16T14:07:01;43.21;35.72;57.51;;
77134;Laerm;25175;50.140;18.990;2024-01-16T14:10:12;41.92;36.01;54.31;;
77134;Laerm;25175;50.140;18.990;2024-01-16T14:13:17;43.50;35.45;53.89;;
77134;Laerm;25175;50.140;18.990;2024-01-16T14:16:22;44.42;35.56;58.96;;
77134;Laerm;25175;50.140;18.990;2024-01-16T14:19:27;43.43;35.09;59.38;;
77134;Laerm;25175;50.140;18.990;2024-01-16T14:22:33;42.05;34.70;55.12;;
77134;Laerm;25175;50.140;18.990;2024-01-16T14:25:44;42.24;35.30;53.88;;
77134;Laerm;25175;50.140;18.990;2024-01-16T14:28:49;41.74;35.30;55.23;;
77134;Laerm;25175;50.140;18.990;2024-01-16T14:31:56;41.69;36.07;51.67;;
77134;Laerm;25175;50.140;18.990;2024-01-16T14:35:04;41.18;35.84;49.45;;
77134;Laerm;25175;50.140;18.990;2024-01-16T14:38:09;41.28;35.98;54.44;;
77134;Laerm;25175;50.140;18.990;2024-01-16T14:41:19;43.56;36.45;56.09;;
77134;Laerm;25175;50.140;18.990;2024-01-16T14:44:23;41.55;35.98;54.40;;
77134;Laerm;25175;50.140;18.990;2024-01-16T14:47:29;42.19;36.58;51.78;;
77134;Laerm;25175;50.140;18.990;2024-01-16T14:50:35;42.47;35.80;53.40;;
77134;Laerm;25175;50.140;18.990;2024-01-16T14:53:40;45.53;36.76;61.79;;
77134;Laerm;25175;50.140;18.990;2024-01-16T14:56:48;41.80;35.39;52.24;;
77134;Laerm;25175;50.140;18.990;2024-01-16T14:59:54;43.81;35.97;55.59;;
77134;Laerm;25175;50.140;18.990;2024-01-16T15:02:58;41.96;35.70;56.57;;
77134;Laerm;25175;50.140;18.990;2024-01-16T15:06:06;41.90;35.46;56.46;;
77134;Laerm;25175;50.140;18.990;2024-01-16T15:09:15;41.19;35.20;54.75;;
77134;Laerm;25175;50.140;18.990;2024-01-16T15:12:23;47.27;35.20;62.50;;
77134;Laerm;25175;50.140;18.990;2024-01-16T15:15:27;41.76;35.64;52.29;;
77134;Laerm;25175;50.140;18.990;2024-01-16T15:18:33;43.44;35.76;60.66;;
77134;Laerm;25175;50.140;18.990;2024-01-16T15:21:38;41.28;35.14;51.65;;
77134;Laerm;25175;50.140;18.990;2024-01-16T15:24:44;41.75;35.51;52.57;;
77134;Laerm;25175;50.140;18.990;2024-01-16T15:27:52;42.45;35.54;53.97;;
77134;Laerm;25175;50.140;18.990;2024-01-16T15:30:58;43.55;35.75;59.12;;
77134;Laerm;25175;50.140;18.990;2024-01-16T15:34:07;45.80;34.52;63.98;;
77134;Laerm;25175;50.140;18.990;2024-01-16T15:37:12;42.00;35.37;55.51;;
77134;Laerm;25175;50.140;18.990;2024-01-16T15:40:17;41.98;34.91;57.37;;
77134;Laerm;25175;50.140;18.990;2024-01-16T15:43:25;51.31;34.10;71.48;;
77134;Laerm;25175;50.140;18.990;2024-01-16T15:46:30;52.32;35.06;72.10;;
77134;Laerm;25175;50.140;18.990;2024-01-16T15:49:37;40.30;34.88;49.56;;
77134;Laerm;25175;50.140;18.990;2024-01-16T15:52:42;40.20;35.10;52.17;;
77134;Laerm;25175;50.140;18.990;2024-01-16T15:55:48;43.33;34.41;63.04;;
77134;Laerm;25175;50.140;18.990;2024-01-16T15:58:56;48.72;34.44;71.35;;
77134;Laerm;25175;50.140;18.990;2024-01-16T16:02:01;56.24;34.96;78.75;;
77134;Laerm;25175;50.140;18.990;2024-01-16T16:05:07;52.30;35.21;80.16;;
77134;Laerm;25175;50.140;18.990;2024-01-16T16:08:14;40.89;34.00;51.32;;
77134;Laerm;25175;50.140;18.990;2024-01-16T16:11:19;38.57;34.30;47.86;;
77134;Laerm;25175;50.140;18.990;2024-01-16T16:14:28;41.62;34.81;56.23;;
77134;Laerm;25175;50.140;18.990;2024-01-16T16:17:33;40.40;34.29;54.20;;
77134;Laerm;25175;50.140;18.990;2024-01-16T16:20:38;40.72;34.82;52.07;;
77134;Laerm;25175;50.140;18.990;2024-01-16T16:23:43;41.40;34.51;56.25;;
77134;Laerm;25175;50.140;18.990;2024-01-16T16:26:49;40.82;34.62;53.76;;
77134;Laerm;25175;50.140;18.990;2024-01-16T16:29:57;45.80;34.59;62.02;;
77134;Laerm;25175;50.140;18.990;2024-01-16T16:33:03;46.28;34.27;65.00;;
77134;Laerm;25175;50.140;18.990;2024-01-16T16:36:09;40.24;34.44;49.72;;
77134;Laerm;25175;50.140;18.990;2024-01-16T16:39:14;39.90;34.02;50.33;;
77134;Laerm;25175;50.140;18.990;2024-01-16T16:42:19;42.05;33.76;58.36;;
77134;Laerm;25175;50.140;18.990;2024-01-16T16:45:27;39.80;33.51;51.17;;
77134;Laerm;25175;50.140;18.990;2024-01-16T16:48:32;40.11;33.97;51.77;;
77134;Laerm;25175;50.140;18.990;2024-01-16T16:51:40;41.63;34.04;56.31;;
77134;Laerm;25175;50.140;18.990;2024-01-16T16:54:47;42.96;33.99;65.20;;
77134;Laerm;25175;50.140;18.990;2024-01-16T16:57:53;40.46;34.18;54.23;;
77134;Laerm;25175;50.140;18.990;2024-01-16T17:01:00;40.64;35.01;55.08;;
77134;Laerm;25175;50.140;18.990;2024-01-16T17:04:06;39.34;34.28;54.35;;
77134;Laerm;25175;50.140;18.990;2024-01-16T17:07:10;39.62;34.59;50.00;;
77134;Laerm;25175;50.140;18.990;2024-01-16T17:10:16;41.43;34.73;61.34;;
77134;Laerm;25175;50.140;18.990;2024-01-16T17:13:21;39.99;34.30;51.17;;
77134;Laerm;25175;50.140;18.990;2024-01-16T17:16:29;42.72;34.98;59.93;;